sensor_id;sensor_type;location;lat;lon;timestamp;temperature;humidity
25192;DHT22;13143;50.924;5.320;2023-03-14T00:01:46;13.60;99.90
25192;DHT22;13143;50.924;5.320;2023-03-14T00:04:14;13.50;99.90
25192;DHT22;13143;50.924;5.320;2023-03-14T00:06:39;13.50;99.90
25192;DHT22;13143;50.924;5.320;2023-03-14T00:09:05;13.50;99.90
25192;DHT22;13143;50.924;5.320;2023-03-14T00:11:31;13.50;99.90
25192;DHT22;13143;50.924;5.320;2023-03-14T00:13:56;13.50;99.90
25192;DHT22;13143;50.924;5.320;2023-03-14T00:16:22;13.50;99.90
25192;DHT22;13143;50.924;5.320;2023-03-14T00:18:48;13.50;99.90
25192;DHT22;13143;50.924;5.320;2023-03-14T00:21:13;13.40;99.90
25192;DHT22;13143;50.924;5.320;2023-03-14T00:23:40;13.40;99.90
25192;DHT22;13143;50.924;5.320;2023-03-14T00:26:09;13.40;99.90
25192;DHT22;13143;50.924;5.320;2023-03-14T00:28:36;13.40;99.90
25192;DHT22;13143;50.924;5.320;2023-03-14T00:31:06;13.30;99.90
25192;DHT22;13143;50.924;5.320;2023-03-14T00:33:32;13.30;99.90
25192;DHT22;13143;50.924;5.320;2023-03-14T00:36:17;13.30;99.90
25192;DHT22;13143;50.924;5.320;2023-03-14T00:38:47;13.30;99.90
25192;DHT22;13143;50.924;5.320;2023-03-14T00:41:17;13.30;99.90
25192;DHT22;13143;50.924;5.320;2023-03-14T00:43:43;13.20;99.90
25192;DHT22;13143;50.924;5.320;2023-03-14T00:46:09;13.20;99.90
25192;DHT22;13143;50.924;5.320;2023-03-14T00:48:36;13.20;99.90
25192;DHT22;13143;50.924;5.320;2023-03-14T00:51:03;13.20;99.90
25192;DHT22;13143;50.924;5.320;2023-03-14T00:53:29;13.20;99.90
25192;DHT22;13143;50.924;5.320;2023-03-14T00:55:54;13.20;99.90
25192;DHT22;13143;50.924;5.320;2023-03-14T00:58:20;13.20;99.90
25192;DHT22;13143;50.924;5.320;2023-03-14T01:00:46;13.20;99.90
25192;DHT22;13143;50.924;5.320;2023-03-14T01:03:12;13.10;99.90
25192;DHT22;13143;50.924;5.320;2023-03-14T01:05:38;13.10;99.90
25192;DHT22;13143;50.924;5.320;2023-03-14T01:08:06;13.10;99.90
25192;DHT22;13143;50.924;5.320;2023-03-14T01:10:33;13.10;99.90
25192;DHT22;13143;50.924;5.320;2023-03-14T01:12:58;13.10;99.90
25192;DHT22;13143;50.924;5.320;2023-03-14T01:15:24;13.10;99.90
25192;DHT22;13143;50.924;5.320;2023-03-14T01:17:50;13.10;99.90
25192;DHT22;13143;50.924;5.320;2023-03-14T01:20:17;13.10;99.90
25192;DHT22;13143;50.924;5.320;2023-03-14T01:22:43;13.10;99.90
25192;DHT22;13143;50.924;5.320;2023-03-14T01:25:14;13.10;99.90
25192;DHT22;13143;50.924;5.320;2023-03-14T01:27:40;13.00;99.90
25192;DHT22;13143;50.924;5.320;2023-03-14T01:30:06;13.00;99.90
25192;DHT22;13143;50.924;5.320;2023-03-14T01:32:33;13.00;99.90
25192;DHT22;13143;50.924;5.320;2023-03-14T01:34:59;13.00;99.90
25192;DHT22;13143;50.924;5.320;2023-03-14T01:37:25;13.00;99.90
25192;DHT22;13143;50.924;5.320;2023-03-14T01:39:50;13.00;99.90
25192;DHT22;13143;50.924;5.320;2023-03-14T01:42:16;13.00;99.90
25192;DHT22;13143;50.924;5.320;2023-03-14T01:44:56;13.00;99.90
25192;DHT22;13143;50.924;5.320;2023-03-14T01:47:22;12.90;99.90
25192;DHT22;13143;50.924;5.320;2023-03-14T01:49:53;12.90;99.90
25192;DHT22;13143;50.924;5.320;2023-03-14T01:52:32;12.90;99.90
25192;DHT22;13143;50.924;5.320;2023-03-14T01:55:06;12.90;99.90
25192;DHT22;13143;50.924;5.320;2023-03-14T01:57:37;12.90;99.90
25192;DHT22;13143;50.924;5.320;2023-03-14T02:00:13;12.90;99.90
25192;DHT22;13143;50.924;5.320;2023-03-14T02:02:43;12.90;99.90
25192;DHT22;13143;50.924;5.320;2023-03-14T02:05:11;12.90;99.90
25192;DHT22;13143;50.924;5.320;2023-03-14T02:10:07;12.90;99.90
25192;DHT22;13143;50.924;5.320;2023-03-14T02:12:35;12.90;99.90
25192;DHT22;13143;50.924;5.320;2023-03-14T02:15:01;12.90;99.90
25192;DHT22;13143;50.924;5.320;2023-03-14T02:17:27;12.90;99.90
25192;DHT22;13143;50.924;5.320;2023-03-14T02:22:30;12.80;99.90
25192;DHT22;13143;50.924;5.320;2023-03-14T02:25:06;12.80;99.90
25192;DHT22;13143;50.924;5.320;2023-03-14T02:27:33;12.80;99.90
25192;DHT22;13143;50.924;5.320;2023-03-14T02:30:05;12.80;99.90
25192;DHT22;13143;50.924;5.320;2023-03-14T02:32:33;12.80;99.90
25192;DHT22;13143;50.924;5.320;2023-03-14T02:35:04;12.80;99.90
25192;DHT22;13143;50.924;5.320;2023-03-14T02:37:36;12.80;99.90
25192;DHT22;13143;50.924;5.320;2023-03-14T02:40:04;12.80;99.90
25192;DHT22;13143;50.924;5.320;2023-03-14T02:42:30;12.70;99.90
25192;DHT22;13143;50.924;5.320;2023-03-14T02:47:33;12.70;99.90
25192;DHT22;13143;50.924;5.320;2023-03-14T02:50:09;12.70;99.90
25192;DHT22;13143;50.924;5.320;2023-03-14T02:52:35;12.70;99.90
25192;DHT22;13143;50.924;5.320;2023-03-14T02:55:01;12.70;99.90
25192;DHT22;13143;50.924;5.320;2023-03-14T02:57:26;12.70;99.90
25192;DHT22;13143;50.924;5.320;2023-03-14T02:59:52;12.70;99.90
25192;DHT22;13143;50.924;5.320;2023-03-14T03:02:18;12.70;99.90
25192;DHT22;13143;50.924;5.320;2023-03-14T03:04:43;12.60;99.90
25192;DHT22;13143;50.924;5.320;2023-03-14T03:07:09;12.60;99.90
25192;DHT22;13143;50.924;5.320;2023-03-14T03:09:34;12.60;99.90
25192;DHT22;13143;50.924;5.320;2023-03-14T03:12:00;12.60;99.90
25192;DHT22;13143;50.924;5.320;2023-03-14T03:14:26;12.60;99.90
25192;DHT22;13143;50.924;5.320;2023-03-14T03:16:51;12.60;99.90
25192;DHT22;13143;50.924;5.320;2023-03-14T03:19:17;12.60;99.90
25192;DHT22;13143;50.924;5.320;2023-03-14T03:21:43;12.60;99.90
25192;DHT22;13143;50.924;5.320;2023-03-14T03:24:09;12.50;99.90
25192;DHT22;13143;50.924;5.320;2023-03-14T03:26:35;12.50;99.90
25192;DHT22;13143;50.924;5.320;2023-03-14T03:29:02;12.50;99.90
25192;DHT22;13143;50.924;5.320;2023-03-14T03:31:27;12.50;99.90
25192;DHT22;13143;50.924;5.320;2023-03-14T03:33:53;12.50;99.90
25192;DHT22;13143;50.924;5.320;2023-03-14T03:36:23;12.50;99.90
25192;DHT22;13143;50.924;5.320;2023-03-14T03:38:49;12.40;99.90
25192;DHT22;13143;50.924;5.320;2023-03-14T03:41:15;12.40;99.90
25192;DHT22;13143;50.924;5.320;2023-03-14T03:43:40;12.40;99.90
25192;DHT22;13143;50.924;5.320;2023-03-14T03:46:07;12.40;99.90
25192;DHT22;13143;50.924;5.320;2023-03-14T03:48:33;12.40;99.90
25192;DHT22;13143;50.924;5.320;2023-03-14T03:50:59;12.40;99.90
25192;DHT22;13143;50.924;5.320;2023-03-14T03:53:25;12.30;99.90
25192;DHT22;13143;50.924;5.320;2023-03-14T03:55:51;12.30;99.90
25192;DHT22;13143;50.924;5.320;2023-03-14T03:58:17;12.30;99.90
25192;DHT22;13143;50.924;5.320;2023-03-14T04:00:42;12.30;99.90
25192;DHT22;13143;50.924;5.320;2023-03-14T04:03:08;12.30;99.90
25192;DHT22;13143;50.924;5.320;2023-03-14T04:05:34;12.30;99.90
25192;DHT22;13143;50.924;5.320;2023-03-14T04:08:00;12.20;99.90
25192;DHT22;13143;50.924;5.320;2023-03-14T04:10:25;12.20;99.90
25192;DHT22;13143;50.924;5.320;2023-03-14T04:12:51;12.20;99.90
25192;DHT22;13143;50.924;5.320;2023-03-14T04:15:17;12.20;99.90
25192;DHT22;13143;50.924;5.320;2023-03-14T04:17:43;12.20;99.90
25192;DHT22;13143;50.924;5.320;2023-03-14T04:20:09;12.20;99.90
25192;DHT22;13143;50.924;5.320;2023-03-14T04:22:39;12.10;99.90
25192;DHT22;13143;50.924;5.320;2023-03-14T04:25:05;12.10;99.90
25192;DHT22;13143;50.924;5.320;2023-03-14T04:27:31;12.10;99.90
25192;DHT22;13143;50.924;5.320;2023-03-14T04:29:57;12.10;99.90
25192;DHT22;13143;50.924;5.320;2023-03-14T04:32:22;12.10;99.90
25192;DHT22;13143;50.924;5.320;2023-03-14T04:34:48;12.10;99.90
25192;DHT22;13143;50.924;5.320;2023-03-14T04:37:14;12.10;99.90
25192;DHT22;13143;50.924;5.320;2023-03-14T04:39:39;12.10;99.90
25192;DHT22;13143;50.924;5.320;2023-03-14T04:42:05;12.00;99.90
25192;DHT22;13143;50.924;5.320;2023-03-14T04:44:31;12.00;99.90
25192;DHT22;13143;50.924;5.320;2023-03-14T04:46:56;12.00;99.90
25192;DHT22;13143;50.924;5.320;2023-03-14T04:49:22;12.00;99.90
25192;DHT22;13143;50.924;5.320;2023-03-14T04:51:48;11.90;99.90
25192;DHT22;13143;50.924;5.320;2023-03-14T04:54:16;11.90;99.90
25192;DHT22;13143;50.924;5.320;2023-03-14T04:56:42;11.90;99.90
25192;DHT22;13143;50.924;5.320;2023-03-14T04:59:08;11.80;99.90
25192;DHT22;13143;50.924;5.320;2023-03-14T05:01:34;11.80;99.90
25192;DHT22;13143;50.924;5.320;2023-03-14T05:03:59;11.80;99.90
25192;DHT22;13143;50.924;5.320;2023-03-14T05:06:25;11.80;99.90
25192;DHT22;13143;50.924;5.320;2023-03-14T05:08:51;11.80;99.90
25192;DHT22;13143;50.924;5.320;2023-03-14T05:11:16;11.80;99.90
25192;DHT22;13143;50.924;5.320;2023-03-14T05:13:42;11.80;99.90
25192;DHT22;13143;50.924;5.320;2023-03-14T05:16:10;11.80;99.90
25192;DHT22;13143;50.924;5.320;2023-03-14T05:18:36;11.80;99.90
25192;DHT22;13143;50.924;5.320;2023-03-14T05:21:02;11.80;99.90
25192;DHT22;13143;50.924;5.320;2023-03-14T05:23:28;11.80;99.90
25192;DHT22;13143;50.924;5.320;2023-03-14T05:25:54;11.80;99.90
25192;DHT22;13143;50.924;5.320;2023-03-14T05:28:20;11.80;99.90
25192;DHT22;13143;50.924;5.320;2023-03-14T05:30:46;11.70;99.90
25192;DHT22;13143;50.924;5.320;2023-03-14T05:33:12;11.80;99.90
25192;DHT22;13143;50.924;5.320;2023-03-14T05:35:37;11.70;99.90
25192;DHT22;13143;50.924;5.320;2023-03-14T05:38:03;11.70;99.90
25192;DHT22;13143;50.924;5.320;2023-03-14T05:40:29;11.70;99.90
25192;DHT22;13143;50.924;5.320;2023-03-14T05:42:54;11.70;99.90
25192;DHT22;13143;50.924;5.320;2023-03-14T05:45:20;11.70;99.90
25192;DHT22;13143;50.924;5.320;2023-03-14T05:47:45;11.70;99.90
25192;DHT22;13143;50.924;5.320;2023-03-14T05:50:12;11.70;99.90
25192;DHT22;13143;50.924;5.320;2023-03-14T05:52:37;11.70;99.90
25192;DHT22;13143;50.924;5.320;2023-03-14T05:55:03;11.70;99.90
25192;DHT22;13143;50.924;5.320;2023-03-14T05:57:30;11.70;99.90
25192;DHT22;13143;50.924;5.320;2023-03-14T05:59:55;11.60;99.90
25192;DHT22;13143;50.924;5.320;2023-03-14T06:02:21;11.70;99.90
25192;DHT22;13143;50.924;5.320;2023-03-14T06:04:47;11.70;99.90
25192;DHT22;13143;50.924;5.320;2023-03-14T06:07:12;11.70;99.90
25192;DHT22;13143;50.924;5.320;2023-03-14T06:09:38;11.70;99.90
25192;DHT22;13143;50.924;5.320;2023-03-14T06:12:05;11.70;99.90
25192;DHT22;13143;50.924;5.320;2023-03-14T06:14:31;11.70;99.90
25192;DHT22;13143;50.924;5.320;2023-03-14T06:16:56;11.60;99.90
25192;DHT22;13143;50.924;5.320;2023-03-14T06:19:24;11.60;99.90
25192;DHT22;13143;50.924;5.320;2023-03-14T06:21:51;11.60;99.90
25192;DHT22;13143;50.924;5.320;2023-03-14T06:24:17;11.70;99.90
25192;DHT22;13143;50.924;5.320;2023-03-14T06:26:42;11.60;99.90
25192;DHT22;13143;50.924;5.320;2023-03-14T06:29:08;11.60;99.90
25192;DHT22;13143;50.924;5.320;2023-03-14T06:31:34;11.70;99.90
25192;DHT22;13143;50.924;5.320;2023-03-14T06:33:59;11.70;99.90
25192;DHT22;13143;50.924;5.320;2023-03-14T06:36:25;11.70;99.90
25192;DHT22;13143;50.924;5.320;2023-03-14T06:38:51;11.70;99.90
25192;DHT22;13143;50.924;5.320;2023-03-14T06:41:16;11.70;99.90
25192;DHT22;13143;50.924;5.320;2023-03-14T06:43:42;11.70;99.90
25192;DHT22;13143;50.924;5.320;2023-03-14T06:46:08;11.70;99.90
25192;DHT22;13143;50.924;5.320;2023-03-14T06:48:33;11.70;99.90
25192;DHT22;13143;50.924;5.320;2023-03-14T06:50:59;11.70;99.90
25192;DHT22;13143;50.924;5.320;2023-03-14T06:53:25;11.70;99.90
25192;DHT22;13143;50.924;5.320;2023-03-14T06:55:50;11.70;99.90
25192;DHT22;13143;50.924;5.320;2023-03-14T06:58:16;11.70;99.90
25192;DHT22;13143;50.924;5.320;2023-03-14T07:00:42;11.70;99.90
25192;DHT22;13143;50.924;5.320;2023-03-14T07:03:08;11.80;99.90
25192;DHT22;13143;50.924;5.320;2023-03-14T07:05:34;11.80;99.90
25192;DHT22;13143;50.924;5.320;2023-03-14T07:07:59;11.80;99.90
25192;DHT22;13143;50.924;5.320;2023-03-14T07:10:25;11.80;99.90
25192;DHT22;13143;50.924;5.320;2023-03-14T07:12:51;11.80;99.90
25192;DHT22;13143;50.924;5.320;2023-03-14T07:15:18;11.80;99.90
25192;DHT22;13143;50.924;5.320;2023-03-14T07:17:43;11.80;99.90
25192;DHT22;13143;50.924;5.320;2023-03-14T07:20:09;11.80;99.90
25192;DHT22;13143;50.924;5.320;2023-03-14T07:22:35;11.80;99.90
25192;DHT22;13143;50.924;5.320;2023-03-14T07:25:01;11.80;99.90
25192;DHT22;13143;50.924;5.320;2023-03-14T07:27:26;11.80;99.90
25192;DHT22;13143;50.924;5.320;2023-03-14T07:29:52;11.80;99.90
25192;DHT22;13143;50.924;5.320;2023-03-14T07:32:18;11.90;99.90
25192;DHT22;13143;50.924;5.320;2023-03-14T07:34:44;11.80;99.90
25192;DHT22;13143;50.924;5.320;2023-03-14T07:37:10;11.90;99.90
25192;DHT22;13143;50.924;5.320;2023-03-14T07:39:35;11.90;99.90
25192;DHT22;13143;50.924;5.320;2023-03-14T07:42:01;11.90;99.90
25192;DHT22;13143;50.924;5.320;2023-03-14T07:44:27;11.90;99.90
25192;DHT22;13143;50.924;5.320;2023-03-14T07:46:53;11.90;99.90
25192;DHT22;13143;50.924;5.320;2023-03-14T07:49:18;11.90;99.90
25192;DHT22;13143;50.924;5.320;2023-03-14T07:51:47;11.90;99.90
25192;DHT22;13143;50.924;5.320;2023-03-14T07:54:13;11.90;99.90
25192;DHT22;13143;50.924;5.320;2023-03-14T07:56:39;11.90;99.90
25192;DHT22;13143;50.924;5.320;2023-03-14T07:59:04;12.00;99.90
25192;DHT22;13143;50.924;5.320;2023-03-14T08:01:30;11.90;99.90
25192;DHT22;13143;50.924;5.320;2023-03-14T08:03:56;11.80;99.90
25192;DHT22;13143;50.924;5.320;2023-03-14T08:06:21;11.80;99.90
25192;DHT22;13143;50.924;5.320;2023-03-14T08:08:47;11.80;99.90
25192;DHT22;13143;50.924;5.320;2023-03-14T08:11:13;11.80;99.90
25192;DHT22;13143;50.924;5.320;2023-03-14T08:13:38;11.80;99.90
25192;DHT22;13143;50.924;5.320;2023-03-14T08:16:05;11.70;99.90
25192;DHT22;13143;50.924;5.320;2023-03-14T08:18:31;11.70;99.90
25192;DHT22;13143;50.924;5.320;2023-03-14T08:20:57;11.70;99.90
25192;DHT22;13143;50.924;5.320;2023-03-14T08:23:23;11.60;99.90
25192;DHT22;13143;50.924;5.320;2023-03-14T08:25:50;11.60;99.90
25192;DHT22;13143;50.924;5.320;2023-03-14T08:28:17;11.50;99.90
25192;DHT22;13143;50.924;5.320;2023-03-14T08:30:43;11.50;99.90
25192;DHT22;13143;50.924;5.320;2023-03-14T08:33:08;11.50;99.90
25192;DHT22;13143;50.924;5.320;2023-03-14T08:35:34;11.50;99.90
25192;DHT22;13143;50.924;5.320;2023-03-14T08:38:00;11.50;99.90
25192;DHT22;13143;50.924;5.320;2023-03-14T08:40:26;11.40;99.90
25192;DHT22;13143;50.924;5.320;2023-03-14T08:42:52;11.40;99.90
25192;DHT22;13143;50.924;5.320;2023-03-14T08:45:18;11.40;99.90
25192;DHT22;13143;50.924;5.320;2023-03-14T08:47:44;11.30;99.90
25192;DHT22;13143;50.924;5.320;2023-03-14T08:50:11;11.20;99.90
25192;DHT22;13143;50.924;5.320;2023-03-14T08:52:39;11.20;99.90
25192;DHT22;13143;50.924;5.320;2023-03-14T08:55:07;11.20;99.90
25192;DHT22;13143;50.924;5.320;2023-03-14T08:57:33;11.20;99.90
25192;DHT22;13143;50.924;5.320;2023-03-14T08:59:59;11.20;99.90
25192;DHT22;13143;50.924;5.320;2023-03-14T09:02:25;11.20;99.90
25192;DHT22;13143;50.924;5.320;2023-03-14T09:04:51;11.10;99.90
25192;DHT22;13143;50.924;5.320;2023-03-14T09:07:18;11.10;99.90
25192;DHT22;13143;50.924;5.320;2023-03-14T09:09:44;11.10;99.90
25192;DHT22;13143;50.924;5.320;2023-03-14T09:12:09;11.00;99.90
25192;DHT22;13143;50.924;5.320;2023-03-14T09:14:35;11.00;99.90
25192;DHT22;13143;50.924;5.320;2023-03-14T09:17:01;11.00;99.90
25192;DHT22;13143;50.924;5.320;2023-03-14T09:19:27;11.00;99.90
25192;DHT22;13143;50.924;5.320;2023-03-14T09:21:54;11.00;99.90
25192;DHT22;13143;50.924;5.320;2023-03-14T09:24:20;10.90;99.90
25192;DHT22;13143;50.924;5.320;2023-03-14T09:26:45;10.90;99.90
25192;DHT22;13143;50.924;5.320;2023-03-14T09:29:11;10.90;99.90
25192;DHT22;13143;50.924;5.320;2023-03-14T09:31:36;10.90;99.90
25192;DHT22;13143;50.924;5.320;2023-03-14T09:34:02;10.90;99.90
25192;DHT22;13143;50.924;5.320;2023-03-14T09:36:28;10.90;99.90
25192;DHT22;13143;50.924;5.320;2023-03-14T09:38:53;10.80;99.90
25192;DHT22;13143;50.924;5.320;2023-03-14T09:41:27;10.90;99.90
25192;DHT22;13143;50.924;5.320;2023-03-14T09:44:08;10.80;99.90
25192;DHT22;13143;50.924;5.320;2023-03-14T09:46:38;10.80;99.90
25192;DHT22;13143;50.924;5.320;2023-03-14T09:49:20;10.80;99.90
25192;DHT22;13143;50.924;5.320;2023-03-14T09:51:49;10.80;99.90
25192;DHT22;13143;50.924;5.320;2023-03-14T09:56:57;10.80;99.90
25192;DHT22;13143;50.924;5.320;2023-03-14T09:59:23;10.70;99.90
25192;DHT22;13143;50.924;5.320;2023-03-14T10:01:48;10.70;99.90
25192;DHT22;13143;50.924;5.320;2023-03-14T10:04:17;10.70;99.90
25192;DHT22;13143;50.924;5.320;2023-03-14T10:06:45;10.70;99.90
25192;DHT22;13143;50.924;5.320;2023-03-14T10:09:22;10.60;99.90
25192;DHT22;13143;50.924;5.320;2023-03-14T10:11:57;10.60;99.90
25192;DHT22;13143;50.924;5.320;2023-03-14T10:14:33;10.60;99.90
25192;DHT22;13143;50.924;5.320;2023-03-14T10:17:06;10.60;99.90
25192;DHT22;13143;50.924;5.320;2023-03-14T10:19:32;10.60;99.90
25192;DHT22;13143;50.924;5.320;2023-03-14T10:22:01;10.60;99.90
25192;DHT22;13143;50.924;5.320;2023-03-14T10:24:31;10.60;99.90
25192;DHT22;13143;50.924;5.320;2023-03-14T10:27:05;10.50;99.90
25192;DHT22;13143;50.924;5.320;2023-03-14T10:29:33;10.50;99.90
25192;DHT22;13143;50.924;5.320;2023-03-14T10:32:04;10.50;99.90
25192;DHT22;13143;50.924;5.320;2023-03-14T10:34:35;10.50;99.90
25192;DHT22;13143;50.924;5.320;2023-03-14T10:37:23;10.50;99.90
25192;DHT22;13143;50.924;5.320;2023-03-14T10:39:52;10.50;99.90
25192;DHT22;13143;50.924;5.320;2023-03-14T10:42:25;10.50;99.90
25192;DHT22;13143;50.924;5.320;2023-03-14T10:44:57;10.50;99.90
25192;DHT22;13143;50.924;5.320;2023-03-14T10:47:26;10.50;99.90
25192;DHT22;13143;50.924;5.320;2023-03-14T10:49:54;10.50;99.90
25192;DHT22;13143;50.924;5.320;2023-03-14T10:52:23;10.40;99.90
25192;DHT22;13143;50.924;5.320;2023-03-14T10:54:58;10.40;99.90
25192;DHT22;13143;50.924;5.320;2023-03-14T10:57:25;10.40;99.90
25192;DHT22;13143;50.924;5.320;2023-03-14T10:59:53;10.40;99.90
25192;DHT22;13143;50.924;5.320;2023-03-14T11:05:40;10.40;99.90
25192;DHT22;13143;50.924;5.320;2023-03-14T11:08:31;10.30;99.90
25192;DHT22;13143;50.924;5.320;2023-03-14T11:11:20;10.30;99.90
25192;DHT22;13143;50.924;5.320;2023-03-14T11:16:54;10.30;99.90
25192;DHT22;13143;50.924;5.320;2023-03-14T11:19:40;10.30;99.90
25192;DHT22;13143;50.924;5.320;2023-03-14T11:25:30;10.20;99.90
25192;DHT22;13143;50.924;5.320;2023-03-14T11:30:54;10.20;99.90
25192;DHT22;13143;50.924;5.320;2023-03-14T11:33:47;10.20;99.90
25192;DHT22;13143;50.924;5.320;2023-03-14T11:36:23;10.20;99.90
25192;DHT22;13143;50.924;5.320;2023-03-14T11:38:55;10.20;99.90
25192;DHT22;13143;50.924;5.320;2023-03-14T11:41:34;10.20;99.90
25192;DHT22;13143;50.924;5.320;2023-03-14T11:44:14;10.20;99.90
25192;DHT22;13143;50.924;5.320;2023-03-14T11:46:52;10.20;99.90
25192;DHT22;13143;50.924;5.320;2023-03-14T11:52:27;10.20;99.90
25192;DHT22;13143;50.924;5.320;2023-03-14T11:55:50;10.20;99.90
25192;DHT22;13143;50.924;5.320;2023-03-14T11:57:55;10.20;99.90
25192;DHT22;13143;50.924;5.320;2023-03-14T12:00:23;10.20;99.90
25192;DHT22;13143;50.924;5.320;2023-03-14T12:03:02;10.20;99.90
25192;DHT22;13143;50.924;5.320;2023-03-14T12:06:04;10.20;99.90
25192;DHT22;13143;50.924;5.320;2023-03-14T12:11:30;10.20;99.90
25192;DHT22;13143;50.924;5.320;2023-03-14T12:13:57;10.10;99.90
25192;DHT22;13143;50.924;5.320;2023-03-14T12:18:49;10.20;99.90
25192;DHT22;13143;50.924;5.320;2023-03-14T12:21:15;10.20;99.90
25192;DHT22;13143;50.924;5.320;2023-03-14T12:23:55;10.20;99.90
25192;DHT22;13143;50.924;5.320;2023-03-14T12:26:26;10.20;99.90
25192;DHT22;13143;50.924;5.320;2023-03-14T12:36:56;10.20;99.90
25192;DHT22;13143;50.924;5.320;2023-03-14T12:39:45;10.20;99.90
25192;DHT22;13143;50.924;5.320;2023-03-14T12:44:45;10.10;99.90
25192;DHT22;13143;50.924;5.320;2023-03-14T12:49:47;10.00;99.90
25192;DHT22;13143;50.924;5.320;2023-03-14T12:52:20;10.10;99.90
25192;DHT22;13143;50.924;5.320;2023-03-14T12:55:12;10.00;99.90
25192;DHT22;13143;50.924;5.320;2023-03-14T12:58:02;10.00;99.90
25192;DHT22;13143;50.924;5.320;2023-03-14T13:00:32;10.00;99.90
25192;DHT22;13143;50.924;5.320;2023-03-14T13:03:22;10.00;99.90
25192;DHT22;13143;50.924;5.320;2023-03-14T13:06:01;9.90;99.90
25192;DHT22;13143;50.924;5.320;2023-03-14T13:08:44;9.90;99.90
25192;DHT22;13143;50.924;5.320;2023-03-14T13:13:40;9.90;99.90
25192;DHT22;13143;50.924;5.320;2023-03-14T13:16:12;9.90;99.90
25192;DHT22;13143;50.924;5.320;2023-03-14T13:18:38;9.90;99.90
25192;DHT22;13143;50.924;5.320;2023-03-14T13:21:20;9.80;99.90
25192;DHT22;13143;50.924;5.320;2023-03-14T13:24:04;9.80;99.90
25192;DHT22;13143;50.924;5.320;2023-03-14T13:26:44;9.80;99.90
25192;DHT22;13143;50.924;5.320;2023-03-14T13:29:20;9.80;99.90
25192;DHT22;13143;50.924;5.320;2023-03-14T13:31:48;9.80;99.90
25192;DHT22;13143;50.924;5.320;2023-03-14T13:34:14;9.80;99.90
25192;DHT22;13143;50.924;5.320;2023-03-14T13:36:40;9.80;99.90
25192;DHT22;13143;50.924;5.320;2023-03-14T13:39:19;9.80;99.90
25192;DHT22;13143;50.924;5.320;2023-03-14T13:41:47;9.80;99.90
25192;DHT22;13143;50.924;5.320;2023-03-14T13:44:17;9.70;99.90
25192;DHT22;13143;50.924;5.320;2023-03-14T13:46:45;9.70;99.90
25192;DHT22;13143;50.924;5.320;2023-03-14T13:49:16;9.70;99.90
25192;DHT22;13143;50.924;5.320;2023-03-14T13:51:44;9.70;99.90
25192;DHT22;13143;50.924;5.320;2023-03-14T13:54:17;9.70;99.90
25192;DHT22;13143;50.924;5.320;2023-03-14T13:56:43;9.70;99.90
25192;DHT22;13143;50.924;5.320;2023-03-14T13:59:26;9.70;99.90
25192;DHT22;13143;50.924;5.320;2023-03-14T14:01:53;9.70;99.90
25192;DHT22;13143;50.924;5.320;2023-03-14T14:04:22;9.70;99.90
25192;DHT22;13143;50.924;5.320;2023-03-14T14:06:57;9.70;99.90
25192;DHT22;13143;50.924;5.320;2023-03-14T14:09:27;9.70;99.90
25192;DHT22;13143;50.924;5.320;2023-03-14T14:17:12;9.70;99.90
25192;DHT22;13143;50.924;5.320;2023-03-14T14:19:39;9.70;99.90
25192;DHT22;13143;50.924;5.320;2023-03-14T14:22:05;9.70;99.90
25192;DHT22;13143;50.924;5.320;2023-03-14T14:24:33;9.60;99.90
25192;DHT22;13143;50.924;5.320;2023-03-14T14:27:08;9.60;99.90
25192;DHT22;13143;50.924;5.320;2023-03-14T14:29:34;9.60;99.90
25192;DHT22;13143;50.924;5.320;2023-03-14T14:32:11;9.60;99.90
25192;DHT22;13143;50.924;5.320;2023-03-14T14:35:04;9.60;99.90
25192;DHT22;13143;50.924;5.320;2023-03-14T14:37:33;9.60;99.90
25192;DHT22;13143;50.924;5.320;2023-03-14T14:40:06;9.60;99.90
25192;DHT22;13143;50.924;5.320;2023-03-14T14:42:33;9.60;99.90
25192;DHT22;13143;50.924;5.320;2023-03-14T14:44:59;9.60;99.90
25192;DHT22;13143;50.924;5.320;2023-03-14T14:47:28;9.60;99.90
25192;DHT22;13143;50.924;5.320;2023-03-14T14:49:57;9.60;99.90
25192;DHT22;13143;50.924;5.320;2023-03-14T14:52:44;9.60;99.90
25192;DHT22;13143;50.924;5.320;2023-03-14T14:55:19;9.60;99.90
25192;DHT22;13143;50.924;5.320;2023-03-14T14:57:53;9.50;99.90
25192;DHT22;13143;50.924;5.320;2023-03-14T15:00:27;9.50;99.90
25192;DHT22;13143;50.924;5.320;2023-03-14T15:02:59;9.60;99.90
25192;DHT22;13143;50.924;5.320;2023-03-14T15:05:27;9.50;99.90
25192;DHT22;13143;50.924;5.320;2023-03-14T15:07:55;9.50;99.90
25192;DHT22;13143;50.924;5.320;2023-03-14T15:10:23;9.50;99.90
25192;DHT22;13143;50.924;5.320;2023-03-14T15:12:49;9.50;99.90
25192;DHT22;13143;50.924;5.320;2023-03-14T15:15:15;9.50;99.90
25192;DHT22;13143;50.924;5.320;2023-03-14T15:17:42;9.50;99.90
25192;DHT22;13143;50.924;5.320;2023-03-14T15:20:13;9.50;99.90
25192;DHT22;13143;50.924;5.320;2023-03-14T15:22:40;9.50;99.90
25192;DHT22;13143;50.924;5.320;2023-03-14T15:25:06;9.50;99.90
25192;DHT22;13143;50.924;5.320;2023-03-14T15:27:32;9.50;99.90
25192;DHT22;13143;50.924;5.320;2023-03-14T15:29:58;9.50;99.90
25192;DHT22;13143;50.924;5.320;2023-03-14T15:32:24;9.50;99.90
25192;DHT22;13143;50.924;5.320;2023-03-14T15:34:54;9.40;99.90
25192;DHT22;13143;50.924;5.320;2023-03-14T15:37:20;9.40;99.90
25192;DHT22;13143;50.924;5.320;2023-03-14T15:39:45;9.40;99.90
25192;DHT22;13143;50.924;5.320;2023-03-14T15:42:11;9.30;99.90
25192;DHT22;13143;50.924;5.320;2023-03-14T15:44:37;9.30;99.90
25192;DHT22;13143;50.924;5.320;2023-03-14T15:47:05;9.20;99.90
25192;DHT22;13143;50.924;5.320;2023-03-14T15:49:31;9.20;99.90
25192;DHT22;13143;50.924;5.320;2023-03-14T15:51:58;9.20;99.90
25192;DHT22;13143;50.924;5.320;2023-03-14T15:54:24;9.20;99.90
25192;DHT22;13143;50.924;5.320;2023-03-14T15:56:54;9.20;99.90
25192;DHT22;13143;50.924;5.320;2023-03-14T15:59:19;9.20;99.90
25192;DHT22;13143;50.924;5.320;2023-03-14T16:01:45;9.20;99.90
25192;DHT22;13143;50.924;5.320;2023-03-14T16:04:13;9.20;99.90
25192;DHT22;13143;50.924;5.320;2023-03-14T16:06:39;9.20;99.90
25192;DHT22;13143;50.924;5.320;2023-03-14T16:09:05;9.20;99.90
25192;DHT22;13143;50.924;5.320;2023-03-14T16:11:30;9.20;99.90
25192;DHT22;13143;50.924;5.320;2023-03-14T16:13:56;9.10;99.90
25192;DHT22;13143;50.924;5.320;2023-03-14T16:16:22;9.20;99.90
25192;DHT22;13143;50.924;5.320;2023-03-14T16:18:47;9.20;99.90
25192;DHT22;13143;50.924;5.320;2023-03-14T16:21:18;9.10;99.90
25192;DHT22;13143;50.924;5.320;2023-03-14T16:23:45;9.10;99.90
25192;DHT22;13143;50.924;5.320;2023-03-14T16:26:16;9.10;99.90
25192;DHT22;13143;50.924;5.320;2023-03-14T16:28:43;9.10;99.90
25192;DHT22;13143;50.924;5.320;2023-03-14T16:31:11;9.10;99.90
25192;DHT22;13143;50.924;5.320;2023-03-14T16:33:37;9.10;99.90
25192;DHT22;13143;50.924;5.320;2023-03-14T16:36:05;9.10;99.90